createdAt,value
2023-04-01T00:02:04.003Z,7.88
2023-04-01T00:04:30.619Z,9.13
2023-04-01T00:06:57.724Z,7.95
2023-04-01T00:09:24.207Z,6.97
2023-04-01T00:11:50.967Z,11.20
2023-04-01T00:14:17.581Z,12.93
2023-04-01T00:16:44.276Z,9.55
2023-04-01T00:19:10.717Z,15.57
2023-04-01T00:21:37.823Z,11.93
2023-04-01T00:24:04.486Z,10.10
2023-04-01T00:26:31.170Z,9.55
2023-04-01T00:28:57.634Z,13.32
2023-04-01T00:31:24.233Z,15.02
2023-04-01T00:33:52.479Z,8.98
2023-04-01T00:36:22.598Z,14.30
2023-04-01T00:38:50.060Z,12.30
2023-04-01T00:41:18.062Z,10.95
2023-04-01T00:43:46.992Z,13.88
2023-04-01T00:46:13.614Z,14.82
2023-04-01T00:48:44.489Z,16.37
2023-04-01T00:51:16.987Z,22.45
2023-04-01T00:53:47.901Z,9.80
2023-04-01T00:56:22.126Z,13.98
2023-04-01T00:58:52.765Z,12.15
2023-04-01T01:01:22.896Z,12.73
2023-04-01T01:03:49.434Z,13.90
2023-04-01T01:06:32.166Z,9.45
2023-04-01T01:09:26.645Z,11.90
2023-04-01T01:12:16.999Z,10.73
2023-04-01T01:15:02.651Z,7.97
2023-04-01T01:17:42.635Z,9.63
2023-04-01T01:20:59.049Z,10.35
2023-04-01T01:23:52.943Z,11.73
2023-04-01T01:26:41.107Z,12.68
2023-04-01T01:29:45.665Z,14.33
2023-04-01T01:32:30.530Z,12.05
2023-04-01T01:35:22.231Z,12.10
2023-04-01T01:37:53.316Z,20.63
2023-04-01T01:40:22.144Z,14.25
2023-04-01T01:42:53.083Z,13.27
2023-04-01T01:45:22.580Z,11.25
2023-04-01T01:47:50.886Z,7.22
2023-04-01T01:50:18.877Z,7.05
2023-04-01T01:52:45.377Z,7.72
2023-04-01T01:55:48.208Z,6.80
2023-04-01T01:58:17.357Z,7.45
2023-04-01T02:00:49.930Z,7.78
2023-04-01T02:03:18.087Z,7.20
2023-04-01T02:05:45.479Z,5.07
2023-04-01T02:08:17.915Z,3.50
2023-04-01T02:10:58.822Z,2.63
2023-04-01T02:13:55.951Z,6.18
2023-04-01T02:16:46.330Z,2.90
2023-04-01T02:19:14.331Z,3.67
2023-04-01T02:21:42.975Z,3.17
2023-04-01T02:24:15.020Z,3.22
2023-04-01T02:26:42.072Z,3.67
2023-04-01T02:29:10.360Z,2.28
2023-04-01T02:31:37.373Z,5.57
2023-04-01T02:34:05.105Z,4.00
2023-04-01T02:36:32.832Z,2.58
2023-04-01T02:39:03.360Z,5.13
2023-04-01T02:41:30.173Z,2.42
2023-04-01T02:43:58.317Z,3.80
2023-04-01T02:46:25.732Z,3.93
2023-04-01T02:48:52.137Z,3.60
2023-04-01T02:51:18.645Z,5.75
2023-04-01T02:53:45.252Z,5.35
2023-04-01T02:56:12.553Z,5.90
2023-04-01T02:58:39.005Z,4.60
2023-04-01T03:01:05.508Z,4.72
2023-04-01T03:03:32.033Z,3.20
2023-04-01T03:05:59.614Z,3.67
2023-04-01T03:08:26.042Z,3.38
2023-04-01T03:10:52.478Z,2.37
2023-04-01T03:13:18.886Z,2.20
2023-04-01T03:15:45.433Z,3.55
2023-04-01T03:18:11.827Z,4.53
2023-04-01T03:20:38.978Z,4.28
2023-04-01T03:23:05.347Z,4.27
2023-04-01T03:25:32.713Z,4.78
2023-04-01T03:28:00.540Z,3.15
2023-04-01T03:30:27.351Z,3.85
2023-04-01T03:32:53.864Z,4.00
2023-04-01T03:35:20.376Z,4.80
2023-04-01T03:37:46.860Z,1.80
2023-04-01T03:40:13.873Z,2.53
2023-04-01T03:42:40.426Z,4.22
2023-04-01T03:45:07.384Z,3.35
2023-04-01T03:47:34.008Z,6.57
2023-04-01T03:50:00.792Z,4.93
2023-04-01T03:52:27.451Z,5.30
2023-04-01T03:54:54.058Z,6.03
2023-04-01T03:57:20.560Z,9.00
2023-04-01T03:59:47.019Z,6.80
2023-04-01T04:02:13.474Z,7.47
2023-04-01T04:04:40.184Z,7.68
2023-04-01T04:07:06.675Z,8.88
2023-04-01T04:09:33.144Z,6.57
2023-04-01T04:11:59.941Z,10.67
2023-04-01T04:14:26.537Z,10.63
2023-04-01T04:16:53.026Z,8.93
2023-04-01T04:19:19.466Z,10.77
2023-04-01T04:21:45.927Z,9.75
2023-04-01T04:24:12.381Z,10.17
2023-04-01T04:26:38.837Z,10.50
2023-04-01T04:29:05.364Z,7.53
2023-04-01T04:31:31.800Z,6.93
2023-04-01T04:34:00.800Z,8.52
2023-04-01T04:36:27.808Z,9.33
2023-04-01T04:38:54.239Z,7.40
2023-04-01T04:41:23.028Z,9.30
2023-04-01T04:43:53.582Z,7.18
2023-04-01T04:46:20.639Z,7.35
2023-04-01T04:48:47.213Z,5.80
2023-04-01T04:51:16.459Z,6.65
2023-04-01T04:53:42.962Z,6.32
2023-04-01T04:56:09.457Z,5.57
2023-04-01T04:58:36.366Z,5.15
2023-04-01T05:01:07.870Z,5.07
2023-04-01T05:03:34.444Z,6.80
2023-04-01T05:06:00.979Z,7.00
2023-04-01T05:08:27.386Z,4.80
2023-04-01T05:10:53.748Z,4.32
2023-04-01T05:13:20.197Z,4.73
2023-04-01T05:15:46.569Z,6.15
2023-04-01T05:18:12.981Z,5.82
2023-04-01T05:20:39.491Z,4.15
2023-04-01T05:23:05.921Z,4.15
2023-04-01T05:25:32.626Z,5.00
2023-04-01T05:27:59.246Z,4.22
2023-04-01T05:30:25.651Z,4.82
2023-04-01T05:32:52.259Z,5.85
2023-04-01T05:35:18.659Z,6.90
2023-04-01T05:37:45.291Z,6.23
2023-04-01T05:40:12.023Z,4.68
2023-04-01T05:42:38.617Z,4.55
2023-04-01T05:45:05.655Z,5.07
2023-04-01T05:47:32.143Z,4.45
2023-04-01T05:49:58.619Z,3.10
2023-04-01T05:52:25.179Z,2.95
2023-04-01T05:54:52.118Z,4.85
2023-04-01T05:57:18.622Z,3.35
2023-04-01T05:59:45.506Z,2.78
2023-04-01T06:02:12.074Z,4.90
2023-04-01T06:04:40.274Z,3.88
2023-04-01T06:07:12.929Z,4.07
2023-04-01T06:09:39.980Z,2.42
2023-04-01T06:12:46.084Z,3.50
2023-04-01T06:15:26.474Z,3.53
2023-04-01T06:18:20.542Z,4.88
2023-04-01T06:21:07.542Z,3.38
2023-04-01T06:23:41.787Z,2.95
2023-04-01T06:26:31.644Z,3.42
2023-04-01T06:29:16.306Z,3.80
2023-04-01T06:32:07.843Z,4.68
2023-04-01T06:34:56.262Z,4.03
2023-04-01T06:38:02.860Z,3.22
2023-04-01T06:41:03.480Z,3.67
2023-04-01T06:43:51.861Z,5.23
2023-04-01T06:46:36.742Z,4.03
2023-04-01T06:49:16.669Z,3.47
2023-04-01T06:52:03.282Z,2.40
2023-04-01T06:54:37.777Z,2.90
2023-04-01T06:57:29.757Z,3.83
2023-04-01T07:00:00.689Z,1.40
2023-04-01T07:02:37.478Z,1.02
2023-04-01T07:05:05.613Z,1.77
2023-04-01T07:07:46.418Z,3.08
2023-04-01T07:10:24.777Z,2.33
2023-04-01T07:12:55.845Z,4.15
2023-04-01T07:15:29.196Z,4.90
2023-04-01T07:18:02.909Z,3.10
2023-04-01T07:20:32.943Z,2.15
2023-04-01T07:23:02.402Z,2.43
2023-04-01T07:25:36.425Z,2.22
2023-04-01T07:28:12.862Z,2.72
2023-04-01T07:30:45.422Z,2.65
2023-04-01T07:33:26.509Z,2.50
2023-04-01T07:36:08.308Z,4.03
2023-04-01T07:38:47.007Z,4.25
2023-04-01T07:41:26.715Z,4.03
2023-04-01T07:44:07.042Z,3.60
2023-04-01T07:46:45.795Z,3.85
2023-04-01T07:49:18.324Z,3.50
2023-04-01T07:52:01.108Z,3.75
2023-04-01T07:54:47.716Z,4.13
2023-04-01T07:57:22.116Z,4.43
2023-04-01T08:00:08.768Z,4.80
2023-04-01T08:03:03.817Z,4.33
2023-04-01T08:05:44.484Z,6.10
2023-04-01T08:08:11.633Z,4.15
2023-04-01T08:10:50.538Z,3.58
2023-04-01T08:13:35.792Z,4.00
2023-04-01T08:16:11.668Z,4.77
2023-04-01T08:18:46.991Z,5.43
2023-04-01T08:21:28.818Z,6.32
2023-04-01T08:24:00.440Z,4.68
2023-04-01T08:26:33.980Z,4.63
2023-04-01T08:29:11.441Z,4.10
2023-04-01T08:31:58.092Z,5.53
2023-04-01T08:34:29.795Z,4.95
2023-04-01T08:37:03.676Z,4.28
2023-04-01T08:39:38.487Z,4.70
2023-04-01T08:42:20.047Z,5.33
2023-04-01T08:45:13.803Z,5.38
2023-04-01T08:47:59.157Z,6.13
2023-04-01T08:50:47.565Z,8.32
2023-04-01T08:53:55.463Z,4.60
2023-04-01T08:56:31.527Z,6.60
2023-04-01T08:59:27.193Z,5.15
2023-04-01T09:02:26.017Z,5.30
2023-04-01T09:05:27.604Z,6.13
2023-04-01T09:08:27.483Z,4.97
2023-04-01T09:11:12.106Z,5.47
2023-04-01T09:14:21.063Z,6.00
2023-04-01T09:17:10.744Z,4.43
2023-04-01T09:19:52.096Z,5.60
2023-04-01T09:22:56.926Z,3.88
2023-04-01T09:25:26.482Z,7.87
2023-04-01T09:28:11.520Z,4.35
2023-04-01T09:31:02.830Z,7.75
2023-04-01T09:33:44.432Z,8.00
2023-04-01T09:36:19.870Z,6.03
2023-04-01T09:38:58.561Z,5.90
2023-04-01T09:41:33.901Z,7.07
2023-04-01T09:44:17.212Z,5.03
2023-04-01T09:46:56.304Z,5.45
2023-04-01T09:49:43.375Z,4.55
2023-04-01T09:52:22.010Z,7.10
2023-04-01T09:55:09.816Z,5.50
2023-04-01T09:57:56.815Z,5.55
2023-04-01T10:00:48.037Z,6.25
2023-04-01T10:03:20.423Z,6.60
2023-04-01T10:06:16.272Z,6.90
2023-04-01T10:09:19.993Z,5.47
2023-04-01T10:12:01.870Z,5.25
2023-04-01T10:14:56.756Z,7.25
2023-04-01T10:18:06.174Z,4.10
2023-04-01T10:20:49.317Z,4.50
2023-04-01T10:23:37.594Z,3.55
2023-04-01T10:26:46.254Z,4.35
2023-04-01T10:29:42.374Z,4.53
2023-04-01T10:32:17.140Z,3.13
2023-04-01T10:35:09.321Z,3.43
2023-04-01T10:37:56.993Z,6.97
2023-04-01T10:41:11.243Z,5.97
2023-04-01T10:44:02.584Z,4.72
2023-04-01T10:47:07.550Z,6.82
2023-04-01T10:50:11.389Z,5.13
2023-04-01T10:53:13.247Z,4.68
2023-04-01T10:55:54.835Z,5.43
2023-04-01T10:58:53.614Z,5.40
2023-04-01T11:01:41.060Z,7.60
2023-04-01T11:04:23.987Z,10.43
2023-04-01T11:07:17.285Z,5.50
2023-04-01T11:09:55.781Z,2.38
2023-04-01T11:12:49.954Z,1.65
2023-04-01T11:15:36.422Z,2.35
2023-04-01T11:18:30.687Z,1.27
2023-04-01T11:21:26.618Z,1.27
2023-04-01T11:24:17.582Z,0.93
2023-04-01T11:27:10.200Z,0.70
2023-04-01T11:30:00.280Z,0.73
2023-04-01T11:32:49.056Z,0.60
2023-04-01T11:35:39.764Z,0.82
2023-04-01T11:38:32.024Z,0.40
2023-04-01T11:41:18.078Z,1.77
2023-04-01T11:44:02.143Z,2.42
2023-04-01T11:46:39.558Z,0.60
2023-04-01T11:49:31.792Z,0.63
2023-04-01T11:52:04.985Z,1.00
2023-04-01T11:55:09.208Z,1.23
2023-04-01T11:57:54.733Z,0.90
2023-04-01T12:00:27.209Z,2.13
2023-04-01T12:03:23.653Z,0.80
2023-04-01T12:06:09.741Z,0.95
2023-04-01T12:08:55.617Z,1.50
2023-04-01T12:11:34.126Z,1.73
2023-04-01T12:14:18.701Z,2.17
2023-04-01T12:17:01.768Z,2.72
2023-04-01T12:19:37.344Z,3.15
2023-04-01T12:22:36.298Z,2.83
2023-04-01T12:25:23.716Z,3.42
2023-04-01T12:28:01.571Z,4.67
2023-04-01T12:30:54.404Z,4.85
2023-04-01T12:33:53.706Z,6.10
2023-04-01T12:36:27.125Z,7.82
2023-04-01T12:39:21.327Z,5.38
2023-04-01T12:42:12.572Z,8.57
2023-04-01T12:44:51.654Z,9.43
2023-04-01T12:47:43.902Z,11.13
2023-04-01T12:50:22.959Z,8.98
2023-04-01T12:53:07.389Z,10.63
2023-04-01T12:55:42.547Z,8.17
2023-04-01T12:58:45.204Z,6.82
2023-04-01T13:01:29.461Z,7.10
2023-04-01T13:04:14.535Z,6.95
2023-04-01T13:07:12.194Z,8.10
2023-04-01T13:10:03.540Z,7.67
2023-04-01T13:12:36.049Z,6.30
2023-04-01T13:15:16.241Z,3.95
2023-04-01T13:18:04.764Z,5.93
2023-04-01T13:20:44.567Z,4.18
2023-04-01T13:23:48.638Z,5.50
2023-04-01T13:26:22.005Z,8.05
2023-04-01T13:29:01.927Z,7.63
2023-04-01T13:31:49.058Z,3.28
2023-04-01T13:34:44.032Z,3.55
2023-04-01T13:37:24.014Z,2.73
2023-04-01T13:40:06.978Z,3.70
2023-04-01T13:42:45.781Z,2.53
2023-04-01T13:45:22.274Z,3.80
2023-04-01T13:47:54.860Z,4.80
2023-04-01T13:50:58.611Z,2.30
2023-04-01T13:53:56.528Z,3.25
2023-04-01T13:56:49.253Z,3.58
2023-04-01T14:00:04.305Z,2.53
2023-04-01T14:02:42.578Z,3.72
2023-04-01T14:05:42.038Z,4.97
2023-04-01T14:08:42.281Z,3.15
2023-04-01T14:11:36.487Z,6.80
2023-04-01T14:14:09.871Z,3.90
2023-04-01T14:16:58.530Z,2.83
2023-04-01T14:19:32.041Z,3.03
2023-04-01T14:22:16.665Z,3.17
2023-04-01T14:25:01.739Z,3.45
2023-04-01T14:27:36.178Z,2.80
2023-04-01T14:30:08.718Z,3.53
2023-04-01T14:32:59.931Z,3.07
2023-04-01T14:35:36.884Z,2.22
2023-04-01T14:38:34.762Z,2.60
2023-04-01T14:41:34.553Z,2.00
2023-04-01T14:44:34.670Z,2.30
2023-04-01T14:47:04.062Z,3.40
2023-04-01T14:49:37.996Z,2.60
2023-04-01T14:52:36.796Z,3.13
2023-04-01T14:55:31.016Z,4.22
2023-04-01T14:58:27.225Z,3.88
2023-04-01T15:01:23.102Z,2.27
2023-04-01T15:04:35.398Z,2.88
2023-04-01T15:07:39.845Z,2.47
2023-04-01T15:10:22.644Z,2.25
2023-04-01T15:13:15.798Z,1.90
2023-04-01T15:16:23.877Z,2.60
2023-04-01T15:19:08.451Z,2.42
2023-04-01T15:21:56.663Z,2.50
2023-04-01T15:25:01.894Z,1.90
2023-04-01T15:27:56.326Z,2.00
2023-04-01T15:31:00.348Z,2.27
2023-04-01T15:33:49.289Z,2.75
2023-04-01T15:36:29.782Z,2.35
2023-04-01T15:39:17.953Z,2.50
2023-04-01T15:42:03.921Z,2.53
2023-04-01T15:44:31.475Z,1.80
2023-04-01T15:46:59.259Z,2.08
2023-04-01T15:49:43.257Z,2.75
2023-04-01T15:52:44.761Z,1.60
2023-04-01T15:55:20.601Z,1.70
2023-04-01T15:58:05.948Z,2.10
2023-04-01T16:00:59.785Z,1.70
2023-04-01T16:03:40.852Z,3.55
2023-04-01T16:06:35.156Z,2.08
2023-04-01T16:09:01.592Z,2.47
2023-04-01T16:11:43.247Z,1.73
2023-04-01T16:14:47.504Z,2.42
2023-04-01T16:17:38.348Z,2.90
2023-04-01T16:20:18.666Z,3.53
2023-04-01T16:23:05.427Z,2.25
2023-04-01T16:25:41.056Z,1.90
2023-04-01T16:28:35.308Z,2.33
2023-04-01T16:31:11.289Z,2.20
2023-04-01T16:33:50.029Z,2.30
2023-04-01T16:36:47.520Z,5.00
2023-04-01T16:39:41.637Z,2.70
2023-04-01T16:42:07.979Z,3.85
2023-04-01T16:44:50.654Z,8.50
2023-04-01T16:47:23.147Z,2.78
2023-04-01T16:49:59.287Z,2.28
2023-04-01T16:53:16.808Z,2.23
2023-04-01T16:55:49.135Z,2.35
2023-04-01T16:58:23.998Z,2.53
2023-04-01T17:00:56.357Z,2.00
2023-04-01T17:03:30.646Z,2.22
2023-04-01T17:06:06.461Z,1.80
2023-04-01T17:09:17.060Z,1.98
2023-04-01T17:11:56.577Z,2.13
2023-04-01T17:14:31.881Z,2.10
2023-04-01T17:17:09.441Z,2.50
2023-04-01T17:19:47.274Z,1.83
2023-04-01T17:22:25.964Z,2.20
2023-04-01T17:25:09.043Z,1.75
2023-04-01T17:28:06.340Z,1.92
2023-04-01T17:30:55.755Z,1.80
2023-04-01T17:33:46.644Z,1.93
2023-04-01T17:36:51.208Z,1.73
2023-04-01T17:39:48.896Z,2.40
2023-04-01T17:42:56.277Z,1.73
2023-04-01T17:45:44.648Z,2.35
2023-04-01T17:48:42.774Z,2.93
2023-04-01T17:51:32.436Z,2.63
2023-04-01T17:54:06.828Z,2.42
2023-04-01T17:57:03.928Z,2.30
2023-04-01T17:59:40.535Z,2.10
2023-04-01T18:02:36.885Z,1.67
2023-04-01T18:05:27.370Z,2.40
2023-04-01T18:07:59.872Z,2.58
2023-04-01T18:10:36.882Z,1.95
2023-04-01T18:13:36.513Z,1.95
2023-04-01T18:16:12.190Z,2.30
2023-04-01T18:18:50.737Z,2.00
2023-04-01T18:21:28.926Z,2.28
2023-04-01T18:24:09.231Z,2.05
2023-04-01T18:26:39.249Z,4.75
2023-04-01T18:29:25.026Z,2.40
2023-04-01T18:32:20.809Z,2.67
2023-04-01T18:34:55.170Z,2.47
2023-04-01T18:37:40.214Z,3.15
2023-04-01T18:40:27.360Z,3.10
2023-04-01T18:43:13.720Z,2.40
2023-04-01T18:46:03.751Z,2.10
2023-04-01T18:48:36.570Z,2.53
2023-04-01T18:51:35.453Z,3.03
2023-04-01T18:54:12.130Z,3.15
2023-04-01T18:56:40.980Z,2.30
2023-04-01T18:59:13.296Z,2.92
2023-04-01T19:01:53.670Z,2.10
2023-04-01T19:04:44.247Z,1.83
2023-04-01T19:07:48.809Z,4.72
2023-04-01T19:10:40.056Z,2.40
2023-04-01T19:13:28.338Z,4.03
2023-04-01T19:16:27.319Z,3.13
2023-04-01T19:19:08.854Z,2.20
2023-04-01T19:21:44.469Z,2.50
2023-04-01T19:24:29.074Z,1.90
2023-04-01T19:27:30.302Z,2.50
2023-04-01T19:30:18.258Z,2.95
2023-04-01T19:33:29.780Z,2.40
2023-04-01T19:36:12.423Z,2.30
2023-04-01T19:38:42.672Z,2.60
2023-04-01T19:41:31.224Z,3.50
2023-04-01T19:44:24.340Z,4.10
2023-04-01T19:46:56.560Z,3.75
2023-04-01T19:49:28.976Z,3.08
2023-04-01T19:51:58.499Z,2.90
2023-04-01T19:54:40.327Z,2.38
2023-04-01T19:57:18.077Z,4.22
2023-04-01T20:00:04.961Z,3.40
2023-04-01T20:02:51.862Z,4.55
2023-04-01T20:05:27.608Z,4.80
2023-04-01T20:08:03.572Z,4.97
2023-04-01T20:10:46.082Z,3.45
2023-04-01T20:13:33.827Z,4.70
2023-04-01T20:16:06.856Z,4.05
2023-04-01T20:19:01.430Z,3.40
2023-04-01T20:21:31.625Z,4.28
2023-04-01T20:24:19.273Z,6.47
2023-04-01T20:26:51.729Z,4.03
2023-04-01T20:29:38.504Z,4.55
2023-04-01T20:32:07.335Z,5.47
2023-04-01T20:35:01.704Z,6.95
2023-04-01T20:37:47.967Z,6.18
2023-04-01T20:40:39.739Z,4.05
2023-04-01T20:43:31.670Z,4.70
2023-04-01T20:46:04.744Z,4.43
2023-04-01T20:48:53.374Z,5.15
2023-04-01T20:51:25.720Z,3.88
2023-04-01T20:54:01.179Z,5.25
2023-04-01T20:56:34.050Z,3.53
2023-04-01T20:59:29.149Z,4.30
2023-04-01T21:02:12.299Z,4.82
2023-04-01T21:05:07.970Z,4.53
2023-04-01T21:08:06.101Z,4.13
2023-04-01T21:10:41.102Z,4.38
2023-04-01T21:13:38.630Z,5.47
2023-04-01T21:16:26.580Z,4.75
2023-04-01T21:19:26.614Z,5.25
2023-04-01T21:22:28.390Z,4.40
2023-04-01T21:25:22.650Z,4.85
2023-04-01T21:28:22.743Z,5.03
2023-04-01T21:30:59.005Z,4.55
2023-04-01T21:33:46.063Z,4.43
2023-04-01T21:36:37.589Z,3.85
2023-04-01T21:39:36.737Z,4.72
2023-04-01T21:42:27.149Z,4.03
2023-04-01T21:45:24.584Z,5.28
2023-04-01T21:48:17.422Z,5.05
2023-04-01T21:51:21.514Z,3.85
2023-04-01T21:54:06.071Z,7.72
2023-04-01T21:56:44.751Z,5.43
2023-04-01T21:59:40.619Z,6.40
2023-04-01T22:02:14.718Z,5.45
2023-04-01T22:05:04.478Z,6.20
2023-04-01T22:07:43.321Z,6.93
2023-04-01T22:10:42.482Z,6.90
2023-04-01T22:13:31.974Z,5.43
2023-04-01T22:16:12.254Z,7.07
2023-04-01T22:18:47.310Z,5.15
2023-04-01T22:21:24.835Z,5.05
2023-04-01T22:24:02.117Z,4.90
2023-04-01T22:26:38.894Z,6.25
2023-04-01T22:29:27.131Z,6.88
2023-04-01T22:32:01.882Z,9.73
2023-04-01T22:34:48.576Z,6.00
2023-04-01T22:37:39.245Z,4.70
2023-04-01T22:40:23.605Z,6.97
2023-04-01T22:43:11.651Z,5.13
2023-04-01T22:45:56.750Z,6.95
2023-04-01T22:48:52.913Z,6.88
2023-04-01T22:51:28.938Z,8.50
2023-04-01T22:54:11.396Z,6.40
2023-04-01T22:56:41.425Z,9.55
2023-04-01T22:59:40.276Z,8.75
2023-04-01T23:02:48.470Z,7.63
2023-04-01T23:05:19.990Z,8.60
2023-04-01T23:08:14.221Z,11.45
2023-04-01T23:10:46.397Z,9.60
2023-04-01T23:13:22.425Z,8.65
2023-04-01T23:15:49.237Z,9.07
2023-04-01T23:18:18.509Z,8.40
2023-04-01T23:21:03.250Z,8.20
2023-04-01T23:23:54.558Z,9.73
2023-04-01T23:26:37.323Z,7.68
2023-04-01T23:29:06.890Z,9.80
2023-04-01T23:31:37.040Z,6.70
2023-04-01T23:34:25.668Z,11.82
2023-04-01T23:36:56.400Z,10.07
2023-04-01T23:39:40.947Z,11.20
2023-04-01T23:42:20.762Z,7.75
2023-04-01T23:44:49.906Z,7.63
2023-04-01T23:47:32.175Z,10.65
2023-04-01T23:50:04.401Z,9.45
2023-04-01T23:52:35.902Z,9.50
2023-04-01T23:55:14.310Z,18.67
2023-04-01T23:57:40.881Z,11.33
